sensor_id;sensor_type;location;lat;lon;timestamp;temperature;humidity
4763;DHT22;2395;50.738;7.122;2022-10-31T00:02:22;12.90;99.90
4763;DHT22;2395;50.738;7.122;2022-10-31T00:04:50;12.90;99.90
4763;DHT22;2395;50.738;7.122;2022-10-31T00:07:16;12.90;99.90
4763;DHT22;2395;50.738;7.122;2022-10-31T00:09:43;12.90;99.90
4763;DHT22;2395;50.738;7.122;2022-10-31T00:12:10;12.90;99.90
4763;DHT22;2395;50.738;7.122;2022-10-31T00:14:37;13.00;99.90
4763;DHT22;2395;50.738;7.122;2022-10-31T00:17:03;12.90;99.90
4763;DHT22;2395;50.738;7.122;2022-10-31T00:19:30;12.90;99.90
4763;DHT22;2395;50.738;7.122;2022-10-31T00:21:58;12.90;99.90
4763;DHT22;2395;50.738;7.122;2022-10-31T00:24:25;12.90;99.90
4763;DHT22;2395;50.738;7.122;2022-10-31T00:26:52;12.90;99.90
4763;DHT22;2395;50.738;7.122;2022-10-31T00:29:18;12.90;99.90
4763;DHT22;2395;50.738;7.122;2022-10-31T00:31:45;13.00;99.90
4763;DHT22;2395;50.738;7.122;2022-10-31T00:34:12;12.90;99.90
4763;DHT22;2395;50.738;7.122;2022-10-31T00:36:38;12.90;99.90
4763;DHT22;2395;50.738;7.122;2022-10-31T00:39:07;12.90;99.90
4763;DHT22;2395;50.738;7.122;2022-10-31T00:41:33;12.90;99.90
4763;DHT22;2395;50.738;7.122;2022-10-31T00:44:00;12.80;99.90
4763;DHT22;2395;50.738;7.122;2022-10-31T00:46:27;12.80;99.90
4763;DHT22;2395;50.738;7.122;2022-10-31T00:48:54;12.80;99.90
4763;DHT22;2395;50.738;7.122;2022-10-31T00:51:21;12.70;99.90
4763;DHT22;2395;50.738;7.122;2022-10-31T00:53:47;12.60;99.90
4763;DHT22;2395;50.738;7.122;2022-10-31T00:56:15;12.60;99.90
4763;DHT22;2395;50.738;7.122;2022-10-31T00:58:42;12.60;99.90
4763;DHT22;2395;50.738;7.122;2022-10-31T01:01:09;12.70;99.90
4763;DHT22;2395;50.738;7.122;2022-10-31T01:03:36;12.70;99.90
4763;DHT22;2395;50.738;7.122;2022-10-31T01:06:06;12.70;99.90
4763;DHT22;2395;50.738;7.122;2022-10-31T01:08:34;12.70;99.90
4763;DHT22;2395;50.738;7.122;2022-10-31T01:11:03;12.70;99.90
4763;DHT22;2395;50.738;7.122;2022-10-31T01:13:32;12.70;99.90
4763;DHT22;2395;50.738;7.122;2022-10-31T01:15:59;12.70;99.90
4763;DHT22;2395;50.738;7.122;2022-10-31T01:18:27;12.70;99.90
4763;DHT22;2395;50.738;7.122;2022-10-31T01:20:59;12.70;99.90
4763;DHT22;2395;50.738;7.122;2022-10-31T01:23:26;12.70;99.90
4763;DHT22;2395;50.738;7.122;2022-10-31T01:26:05;12.70;99.90
4763;DHT22;2395;50.738;7.122;2022-10-31T01:28:34;12.70;99.90
4763;DHT22;2395;50.738;7.122;2022-10-31T01:31:02;12.70;99.90
4763;DHT22;2395;50.738;7.122;2022-10-31T01:33:28;12.80;99.90
4763;DHT22;2395;50.738;7.122;2022-10-31T01:35:55;12.80;99.90
4763;DHT22;2395;50.738;7.122;2022-10-31T01:38:22;12.80;99.90
4763;DHT22;2395;50.738;7.122;2022-10-31T01:40:49;12.80;99.90
4763;DHT22;2395;50.738;7.122;2022-10-31T01:43:16;12.70;99.90
4763;DHT22;2395;50.738;7.122;2022-10-31T01:45:47;12.80;99.90
4763;DHT22;2395;50.738;7.122;2022-10-31T01:48:19;12.80;99.90
4763;DHT22;2395;50.738;7.122;2022-10-31T01:50:48;12.70;99.90
4763;DHT22;2395;50.738;7.122;2022-10-31T01:53:17;12.70;99.90
4763;DHT22;2395;50.738;7.122;2022-10-31T01:55:45;12.70;99.90
4763;DHT22;2395;50.738;7.122;2022-10-31T01:58:14;12.70;99.90
4763;DHT22;2395;50.738;7.122;2022-10-31T02:00:45;12.70;99.90
4763;DHT22;2395;50.738;7.122;2022-10-31T02:03:13;12.70;99.90
4763;DHT22;2395;50.738;7.122;2022-10-31T02:05:41;12.60;99.90
4763;DHT22;2395;50.738;7.122;2022-10-31T02:08:13;12.60;99.90
4763;DHT22;2395;50.738;7.122;2022-10-31T02:10:43;12.50;99.90
4763;DHT22;2395;50.738;7.122;2022-10-31T02:13:10;12.50;99.90
4763;DHT22;2395;50.738;7.122;2022-10-31T02:15:39;12.50;99.90
4763;DHT22;2395;50.738;7.122;2022-10-31T02:18:08;12.50;99.90
4763;DHT22;2395;50.738;7.122;2022-10-31T02:20:41;12.50;99.90
4763;DHT22;2395;50.738;7.122;2022-10-31T02:23:38;12.50;99.90
4763;DHT22;2395;50.738;7.122;2022-10-31T02:26:41;12.50;99.90
4763;DHT22;2395;50.738;7.122;2022-10-31T02:29:29;12.50;99.90
4763;DHT22;2395;50.738;7.122;2022-10-31T02:32:09;12.50;99.90
4763;DHT22;2395;50.738;7.122;2022-10-31T02:34:41;12.50;99.90
4763;DHT22;2395;50.738;7.122;2022-10-31T02:37:14;12.50;99.90
4763;DHT22;2395;50.738;7.122;2022-10-31T02:39:47;12.50;99.90
4763;DHT22;2395;50.738;7.122;2022-10-31T02:42:22;12.50;99.90
4763;DHT22;2395;50.738;7.122;2022-10-31T02:44:54;12.50;99.90
4763;DHT22;2395;50.738;7.122;2022-10-31T02:47:27;12.50;99.90
4763;DHT22;2395;50.738;7.122;2022-10-31T02:49:57;12.40;99.90
4763;DHT22;2395;50.738;7.122;2022-10-31T02:52:27;12.20;99.90
4763;DHT22;2395;50.738;7.122;2022-10-31T02:54:54;12.20;99.90
4763;DHT22;2395;50.738;7.122;2022-10-31T02:57:25;12.30;99.90
4763;DHT22;2395;50.738;7.122;2022-10-31T02:59:57;12.30;99.90
4763;DHT22;2395;50.738;7.122;2022-10-31T03:02:35;12.30;99.90
4763;DHT22;2395;50.738;7.122;2022-10-31T03:05:40;12.30;99.90
4763;DHT22;2395;50.738;7.122;2022-10-31T03:08:16;12.20;99.90
4763;DHT22;2395;50.738;7.122;2022-10-31T03:10:52;12.20;99.90
4763;DHT22;2395;50.738;7.122;2022-10-31T03:13:23;12.30;99.90
4763;DHT22;2395;50.738;7.122;2022-10-31T03:16:04;12.30;99.90
4763;DHT22;2395;50.738;7.122;2022-10-31T03:18:38;12.30;99.90
4763;DHT22;2395;50.738;7.122;2022-10-31T03:21:08;12.30;99.90
4763;DHT22;2395;50.738;7.122;2022-10-31T03:23:37;12.30;99.90
4763;DHT22;2395;50.738;7.122;2022-10-31T03:26:07;12.30;99.90
4763;DHT22;2395;50.738;7.122;2022-10-31T03:28:38;12.30;99.90
4763;DHT22;2395;50.738;7.122;2022-10-31T03:31:07;12.30;99.90
4763;DHT22;2395;50.738;7.122;2022-10-31T03:33:37;12.30;99.90
4763;DHT22;2395;50.738;7.122;2022-10-31T03:36:06;12.30;99.90
4763;DHT22;2395;50.738;7.122;2022-10-31T03:38:35;12.40;99.90
4763;DHT22;2395;50.738;7.122;2022-10-31T03:41:05;12.40;99.90
4763;DHT22;2395;50.738;7.122;2022-10-31T03:43:40;12.40;99.90
4763;DHT22;2395;50.738;7.122;2022-10-31T03:46:09;12.40;99.90
4763;DHT22;2395;50.738;7.122;2022-10-31T03:48:37;12.30;99.90
4763;DHT22;2395;50.738;7.122;2022-10-31T03:51:08;12.30;99.90
4763;DHT22;2395;50.738;7.122;2022-10-31T03:53:39;12.30;99.90
4763;DHT22;2395;50.738;7.122;2022-10-31T03:56:10;12.30;99.90
4763;DHT22;2395;50.738;7.122;2022-10-31T03:58:43;12.30;99.90
4763;DHT22;2395;50.738;7.122;2022-10-31T04:01:14;12.20;99.90
4763;DHT22;2395;50.738;7.122;2022-10-31T04:03:43;12.20;99.90
4763;DHT22;2395;50.738;7.122;2022-10-31T04:06:12;12.20;99.90
4763;DHT22;2395;50.738;7.122;2022-10-31T04:08:45;12.20;99.90
4763;DHT22;2395;50.738;7.122;2022-10-31T04:11:14;12.20;99.90
4763;DHT22;2395;50.738;7.122;2022-10-31T04:13:43;12.20;99.90
4763;DHT22;2395;50.738;7.122;2022-10-31T04:16:11;12.20;99.90
4763;DHT22;2395;50.738;7.122;2022-10-31T04:18:38;12.10;99.90
4763;DHT22;2395;50.738;7.122;2022-10-31T04:21:07;12.10;99.90
4763;DHT22;2395;50.738;7.122;2022-10-31T04:23:35;12.00;99.90
4763;DHT22;2395;50.738;7.122;2022-10-31T04:26:03;12.00;99.90
4763;DHT22;2395;50.738;7.122;2022-10-31T04:28:30;12.00;99.90
4763;DHT22;2395;50.738;7.122;2022-10-31T04:30:58;11.90;99.90
4763;DHT22;2395;50.738;7.122;2022-10-31T04:33:24;12.00;99.90
4763;DHT22;2395;50.738;7.122;2022-10-31T04:35:51;12.00;99.90
4763;DHT22;2395;50.738;7.122;2022-10-31T04:38:19;12.00;99.90
4763;DHT22;2395;50.738;7.122;2022-10-31T04:40:46;12.00;99.90
4763;DHT22;2395;50.738;7.122;2022-10-31T04:43:13;12.00;99.90
4763;DHT22;2395;50.738;7.122;2022-10-31T04:45:39;11.90;99.90
4763;DHT22;2395;50.738;7.122;2022-10-31T04:48:06;11.90;99.90
4763;DHT22;2395;50.738;7.122;2022-10-31T04:50:33;12.00;99.90
4763;DHT22;2395;50.738;7.122;2022-10-31T04:52:59;12.00;99.90
4763;DHT22;2395;50.738;7.122;2022-10-31T04:55:28;12.00;99.90
4763;DHT22;2395;50.738;7.122;2022-10-31T04:57:54;11.90;99.90
4763;DHT22;2395;50.738;7.122;2022-10-31T05:00:22;11.90;99.90
4763;DHT22;2395;50.738;7.122;2022-10-31T05:02:50;11.90;99.90
4763;DHT22;2395;50.738;7.122;2022-10-31T05:05:19;11.90;99.90
4763;DHT22;2395;50.738;7.122;2022-10-31T05:07:47;11.80;99.90
4763;DHT22;2395;50.738;7.122;2022-10-31T05:10:16;11.80;99.90
4763;DHT22;2395;50.738;7.122;2022-10-31T05:12:48;11.80;99.90
4763;DHT22;2395;50.738;7.122;2022-10-31T05:15:16;11.80;99.90
4763;DHT22;2395;50.738;7.122;2022-10-31T05:17:43;11.80;99.90
4763;DHT22;2395;50.738;7.122;2022-10-31T05:20:10;11.90;99.90
4763;DHT22;2395;50.738;7.122;2022-10-31T05:22:41;11.80;99.90
4763;DHT22;2395;50.738;7.122;2022-10-31T05:25:09;11.80;99.90
4763;DHT22;2395;50.738;7.122;2022-10-31T05:27:38;11.80;99.90
4763;DHT22;2395;50.738;7.122;2022-10-31T05:30:07;11.80;99.90
4763;DHT22;2395;50.738;7.122;2022-10-31T05:32:37;11.70;99.90
4763;DHT22;2395;50.738;7.122;2022-10-31T05:35:05;11.70;99.90
4763;DHT22;2395;50.738;7.122;2022-10-31T05:37:33;11.90;99.90
4763;DHT22;2395;50.738;7.122;2022-10-31T05:40:00;11.90;99.90
4763;DHT22;2395;50.738;7.122;2022-10-31T05:42:27;12.20;99.90
4763;DHT22;2395;50.738;7.122;2022-10-31T05:44:54;12.10;99.90
4763;DHT22;2395;50.738;7.122;2022-10-31T05:47:22;11.90;99.90
4763;DHT22;2395;50.738;7.122;2022-10-31T05:49:49;11.80;99.90
4763;DHT22;2395;50.738;7.122;2022-10-31T05:52:16;11.70;99.90
4763;DHT22;2395;50.738;7.122;2022-10-31T05:54:43;11.70;99.90
4763;DHT22;2395;50.738;7.122;2022-10-31T05:57:09;11.80;99.90
4763;DHT22;2395;50.738;7.122;2022-10-31T05:59:36;12.70;99.90
4763;DHT22;2395;50.738;7.122;2022-10-31T06:02:03;13.00;99.90
4763;DHT22;2395;50.738;7.122;2022-10-31T06:04:31;13.30;99.90
4763;DHT22;2395;50.738;7.122;2022-10-31T06:06:58;13.30;99.90
4763;DHT22;2395;50.738;7.122;2022-10-31T06:09:25;13.40;99.90
4763;DHT22;2395;50.738;7.122;2022-10-31T06:11:51;13.60;99.90
4763;DHT22;2395;50.738;7.122;2022-10-31T06:14:18;13.60;99.90
4763;DHT22;2395;50.738;7.122;2022-10-31T06:16:45;13.40;99.90
4763;DHT22;2395;50.738;7.122;2022-10-31T06:19:12;13.40;99.90
4763;DHT22;2395;50.738;7.122;2022-10-31T06:21:40;13.70;99.90
4763;DHT22;2395;50.738;7.122;2022-10-31T06:24:07;13.70;99.90
4763;DHT22;2395;50.738;7.122;2022-10-31T06:26:33;13.70;99.90
4763;DHT22;2395;50.738;7.122;2022-10-31T06:29:00;13.80;99.90
4763;DHT22;2395;50.738;7.122;2022-10-31T06:31:27;13.90;99.90
4763;DHT22;2395;50.738;7.122;2022-10-31T06:33:54;13.90;99.90
4763;DHT22;2395;50.738;7.122;2022-10-31T06:36:20;14.00;99.90
4763;DHT22;2395;50.738;7.122;2022-10-31T06:38:48;14.00;99.90
4763;DHT22;2395;50.738;7.122;2022-10-31T06:41:15;14.00;99.90
4763;DHT22;2395;50.738;7.122;2022-10-31T06:43:42;13.90;99.90
4763;DHT22;2395;50.738;7.122;2022-10-31T06:46:54;14.00;99.90
4763;DHT22;2395;50.738;7.122;2022-10-31T06:55:41;13.80;99.90
4763;DHT22;2395;50.738;7.122;2022-10-31T06:58:09;13.80;99.90
4763;DHT22;2395;50.738;7.122;2022-10-31T07:00:36;13.70;99.90
4763;DHT22;2395;50.738;7.122;2022-10-31T07:03:04;13.90;99.90
4763;DHT22;2395;50.738;7.122;2022-10-31T07:05:32;14.10;99.90
